MST,Max TemperatureF,Mean TemperatureF,Min TemperatureF,Max Dew PointF,MeanDew PointF,Min DewpointF,Max Humidity, Mean Humidity, Min Humidity, Max Sea Level PressureIn, Mean Sea Level PressureIn, Min Sea Level PressureIn, Max VisibilityMiles, Mean VisibilityMiles, Min VisibilityMiles, Max Wind SpeedMPH, Mean Wind SpeedMPH, Max Gust SpeedMPH,PrecipitationIn, CloudCover, Events, WindDirDegrees
2013-2-1,35,32,28,21,19,16,69,61,48,30.33,30.21,30.14,,,,23,9,34,0.00,8,Snow,259
2013-2-2,30,16,1,19,10,-2,93,73,55,30.49,30.42,30.33,,,,7,1,,0.00,1,,304
2013-2-3,21,10,-2,10,2,-6,86,79,63,30.41,30.22,30.10,,,,6,0,,0.00,4,Snow,80
2013-2-4,21,7,-7,10,0,-15,85,75,54,30.20,30.15,30.09,,,,6,0,,0.00,4,Snow,116
2013-2-5,28,12,-4,14,4,-9,86,74,51,30.22,30.13,30.02,,,,5,0,,0.00,3,,285
2013-2-6,28,14,1,23,11,-4,93,83,59,30.12,30.02,29.96,,,,6,0,,0.07,7,Snow,188
2013-2-7,23,9,-5,18,4,-9,93,78,58,30.27,30.18,30.12,,,,5,1,,0.00,4,Snow,104
2013-2-8,17,5,-7,9,-1,-13,85,76,49,30.13,29.94,29.75,,,,5,0,,0.02,6,Snow,107
2013-2-9,30,19,8,23,12,1,86,80,68,29.76,29.62,29.54,,,,14,1,18,0.08,7,Snow,124
2013-2-10,28,14,0,18,9,-4,85,73,59,29.92,29.77,29.63,,,,15,5,22,0.00,7,Snow,270
2013-2-11,17,4,-9,10,-1,-15,92,77,58,30.07,29.95,29.89,,,,8,0,,0.00,5,Snow,182
2013-2-12,10,-5,-20,0,-11,-27,84,69,52,30.21,30.16,30.08,,,,0,0,,0.00,3,Snow,-1
2013-2-13,30,16,3,19,9,-4,79,68,55,30.21,30.14,30.06,,,,17,1,29,0.00,8,Snow,268
2013-2-14,32,24,17,21,15,9,86,67,44,30.21,30.14,30.07,,,,13,5,21,0.00,6,Snow,314
2013-2-15,32,23,14,14,11,5,86,64,34,30.39,30.30,30.21,,,,17,4,21,0.00,5,,323
2013-2-16,30,14,-2,16,4,-8,86,78,55,30.39,30.29,30.14,,,,5,2,,0.00,0,,28
2013-2-17,41,18,-5,19,4,-9,85,63,23,30.12,29.88,29.68,,,,21,2,34,0.00,2,,321
2013-2-18,32,15,-2,12,5,-8,85,62,30,30.13,30.01,29.84,,,,14,4,21,0.00,4,,345
2013-2-19,17,2,-14,3,-6,-22,85,70,49,30.13,29.96,29.78,,,,0,0,,0.00,0,,-1
2013-2-20,23,10,-4,14,2,-8,86,70,46,29.78,29.64,29.53,,,,4,0,,0.00,3,Snow,145
2013-2-21,30,19,8,18,14,5,93,73,51,29.87,29.70,29.56,,,,14,2,16,0.01,8,Snow,338
2013-2-22,23,12,0,12,2,-6,92,70,43,29.98,29.92,29.87,,,,5,1,,0.00,5,Snow,274
2013-2-23,30,16,3,21,9,-4,93,71,47,29.96,29.80,29.64,,,,12,2,,0.05,7,Snow,106
2013-2-24,28,17,5,14,11,0,93,72,51,30.05,29.83,29.66,,,,15,4,21,0.02,7,Snow,329
2013-2-25,19,5,-9,7,-3,-15,85,74,53,30.14,30.04,29.93,,,,4,0,,0.00,2,Snow,107
2013-2-26,23,12,0,14,5,-6,93,73,54,30.14,29.93,29.84,,,,9,1,,0.00,7,Snow,354
2013-2-27,23,9,-5,9,-1,-13,85,72,54,30.27,30.22,30.14,,,,4,0,,0.00,5,Snow,120
2013-2-28,,,,,,,,,,,,,,,,,,,,,,